createdAt,value
2023-02-12T00:01:48.674Z,1.21
2023-02-12T00:04:17.382Z,1.24
2023-02-12T00:06:46.026Z,1.28
2023-02-12T00:09:14.433Z,1.32
2023-02-12T00:11:42.439Z,1.34
2023-02-12T00:14:10.909Z,1.32
2023-02-12T00:16:39.034Z,1.33
2023-02-12T00:19:10.101Z,1.33
2023-02-12T00:21:38.006Z,1.30
2023-02-12T00:24:06.526Z,1.35
2023-02-12T00:26:36.394Z,1.39
2023-02-12T00:29:04.591Z,1.39
2023-02-12T00:31:32.888Z,1.41
2023-02-12T00:34:01.418Z,1.38
2023-02-12T00:36:31.473Z,1.40
2023-02-12T00:39:00.712Z,1.40
2023-02-12T00:41:29.481Z,1.43
2023-02-12T00:44:00.153Z,1.42
2023-02-12T00:46:32.449Z,1.39
2023-02-12T00:49:01.327Z,1.41
2023-02-12T00:51:30.186Z,1.40
2023-02-12T00:53:58.866Z,1.40
2023-02-12T00:56:26.944Z,1.41
2023-02-12T00:58:55.035Z,1.38
2023-02-12T01:01:23.211Z,1.38
2023-02-12T01:03:51.514Z,1.36
2023-02-12T01:06:19.633Z,1.33
2023-02-12T01:08:51.027Z,1.33
2023-02-12T01:11:20.267Z,1.30
2023-02-12T01:13:52.312Z,1.25
2023-02-12T01:16:24.232Z,1.25
2023-02-12T01:18:55.833Z,1.28
2023-02-12T01:21:28.415Z,1.30
2023-02-12T01:23:57.661Z,1.30
2023-02-12T01:26:26.412Z,1.35
2023-02-12T01:28:57.578Z,1.26
2023-02-12T01:31:28.425Z,1.25
2023-02-12T01:33:59.404Z,1.27
2023-02-12T01:36:31.246Z,1.24
2023-02-12T01:39:00.625Z,1.28
2023-02-12T01:41:34.591Z,1.23
2023-02-12T01:44:12.323Z,1.24
2023-02-12T01:46:42.630Z,1.22
2023-02-12T01:49:17.647Z,1.18
2023-02-12T01:51:46.910Z,1.17
2023-02-12T01:54:18.745Z,1.15
2023-02-12T01:56:51.373Z,1.17
2023-02-12T01:59:20.213Z,1.13
2023-02-12T02:01:48.309Z,1.12
2023-02-12T02:04:20.616Z,1.10
2023-02-12T02:06:54.881Z,1.09
2023-02-12T02:09:23.577Z,1.08
2023-02-12T02:12:10.435Z,1.04
2023-02-12T02:14:40.416Z,0.98
2023-02-12T02:17:36.195Z,0.99
2023-02-12T02:20:04.643Z,1.05
2023-02-12T02:22:38.290Z,0.99
2023-02-12T02:25:33.269Z,0.98
2023-02-12T02:28:25.300Z,0.89
2023-02-12T02:31:19.149Z,0.90
2023-02-12T02:33:47.780Z,0.82
2023-02-12T02:36:45.354Z,0.88
2023-02-12T02:39:53.103Z,0.93
2023-02-12T02:42:50.649Z,0.93
2023-02-12T02:45:28.103Z,0.88
2023-02-12T02:48:19.553Z,0.94
2023-02-12T02:50:53.847Z,0.90
2023-02-12T02:53:33.002Z,0.87
2023-02-12T02:56:03.635Z,0.86
2023-02-12T02:58:36.280Z,0.86
2023-02-12T03:01:13.214Z,0.85
2023-02-12T03:04:09.745Z,0.84
2023-02-12T03:06:54.307Z,0.76
2023-02-12T03:09:27.750Z,0.78
2023-02-12T03:12:00.189Z,0.80
2023-02-12T03:14:34.176Z,0.79
2023-02-12T03:17:08.356Z,0.80
2023-02-12T03:19:46.840Z,0.80
2023-02-12T03:22:24.448Z,0.79
2023-02-12T03:25:01.082Z,0.75
2023-02-12T03:27:35.327Z,0.77
2023-02-12T03:30:04.548Z,0.77
2023-02-12T03:32:42.226Z,0.81
2023-02-12T03:35:14.360Z,0.80
2023-02-12T03:37:52.622Z,0.78
2023-02-12T03:40:46.371Z,0.79
2023-02-12T03:43:28.806Z,0.73
2023-02-12T03:46:09.077Z,0.70
2023-02-12T03:48:43.625Z,0.67
2023-02-12T03:51:21.940Z,0.65
2023-02-12T03:53:50.090Z,0.53
2023-02-12T03:56:43.515Z,0.47
2023-02-12T03:59:14.611Z,0.48
2023-02-12T04:01:42.920Z,0.43
2023-02-12T04:04:13.271Z,0.37
2023-02-12T04:06:43.066Z,0.33
2023-02-12T04:09:15.163Z,0.32
2023-02-12T04:12:10.645Z,0.19
2023-02-12T04:15:07.608Z,0.07
2023-02-12T04:17:48.005Z,0.03
2023-02-12T04:20:43.055Z,-0.06
2023-02-12T04:23:26.804Z,-0.12
2023-02-12T04:26:09.630Z,-0.12
2023-02-12T04:28:40.614Z,-0.16
2023-02-12T04:31:30.197Z,-0.21
2023-02-12T04:34:08.289Z,-0.27
2023-02-12T04:36:42.012Z,-0.30
2023-02-12T04:39:13.451Z,-0.27
2023-02-12T04:41:43.779Z,-0.27
2023-02-12T04:44:33.012Z,-0.23
2023-02-12T04:47:01.696Z,-0.27
2023-02-12T04:49:36.521Z,-0.32
2023-02-12T04:52:04.694Z,-0.31
2023-02-12T04:54:33.308Z,-0.24
2023-02-12T04:57:01.608Z,-0.24
2023-02-12T04:59:29.698Z,-0.27
2023-02-12T05:01:57.773Z,-0.34
2023-02-12T05:04:26.169Z,-0.30
2023-02-12T05:06:54.080Z,-0.33
2023-02-12T05:09:23.228Z,-0.32
2023-02-12T05:11:52.666Z,-0.30
2023-02-12T05:14:20.867Z,-0.29
2023-02-12T05:16:48.986Z,-0.15
2023-02-12T05:19:22.357Z,-0.23
2023-02-12T05:21:51.922Z,-0.16
2023-02-12T05:24:19.937Z,-0.13
2023-02-12T05:26:49.766Z,-0.11
2023-02-12T05:29:18.034Z,-0.02
2023-02-12T05:31:46.394Z,0.07
2023-02-12T05:34:14.852Z,0.08
2023-02-12T05:36:42.988Z,0.12
2023-02-12T05:39:11.695Z,0.11
2023-02-12T05:41:40.377Z,0.16
2023-02-12T05:44:08.724Z,0.14
2023-02-12T05:46:36.991Z,0.14
2023-02-12T05:49:05.583Z,0.14
2023-02-12T05:51:34.149Z,0.19
2023-02-12T05:54:04.148Z,0.31
2023-02-12T05:56:34.300Z,0.42
2023-02-12T05:59:07.820Z,0.37
2023-02-12T06:01:40.549Z,0.47
2023-02-12T06:04:14.189Z,0.51
2023-02-12T06:06:45.498Z,0.60
2023-02-12T06:09:14.422Z,0.63
2023-02-12T06:11:43.406Z,0.66
2023-02-12T06:14:19.046Z,0.75
2023-02-12T06:16:56.441Z,0.84
2023-02-12T06:19:24.901Z,0.88
2023-02-12T06:21:53.360Z,0.87
2023-02-12T06:24:24.545Z,1.03
2023-02-12T06:26:52.945Z,1.07
2023-02-12T06:29:22.653Z,1.01
2023-02-12T06:31:51.006Z,1.06
2023-02-12T06:34:19.389Z,1.14
2023-02-12T06:36:48.679Z,1.18
2023-02-12T06:39:19.701Z,1.28
2023-02-12T06:41:48.217Z,1.35
2023-02-12T06:44:17.260Z,1.36
2023-02-12T06:46:45.578Z,1.35
2023-02-12T06:49:14.854Z,1.35
2023-02-12T06:51:43.124Z,1.43
2023-02-12T06:54:22.266Z,1.45
2023-02-12T06:56:50.908Z,1.49
2023-02-12T06:59:18.920Z,1.53
2023-02-12T07:01:47.330Z,1.57
2023-02-12T07:04:19.414Z,1.65
2023-02-12T07:06:47.917Z,1.87
2023-02-12T07:09:18.109Z,2.02
2023-02-12T07:11:46.444Z,2.29
2023-02-12T07:14:17.856Z,2.49
2023-02-12T07:16:46.495Z,2.65
2023-02-12T07:19:17.315Z,2.64
2023-02-12T07:21:45.387Z,2.63
2023-02-12T07:24:20.003Z,2.70
2023-02-12T07:26:48.747Z,2.80
2023-02-12T07:29:17.658Z,2.72
2023-02-12T07:31:46.116Z,2.86
2023-02-12T07:34:14.474Z,2.99
2023-02-12T07:36:42.743Z,3.01
2023-02-12T07:39:13.232Z,3.18
2023-02-12T07:41:42.225Z,3.16
2023-02-12T07:44:12.305Z,2.97
2023-02-12T07:46:48.863Z,2.74
2023-02-12T07:49:21.922Z,2.53
2023-02-12T07:51:51.082Z,2.37
2023-02-12T07:54:19.605Z,2.35
2023-02-12T07:56:48.142Z,2.31
2023-02-12T07:59:18.728Z,2.28
2023-02-12T08:01:48.870Z,2.42
2023-02-12T08:04:19.940Z,2.45
2023-02-12T08:06:55.153Z,2.55
2023-02-12T08:09:28.536Z,2.65
2023-02-12T08:11:56.924Z,2.50
2023-02-12T08:14:28.542Z,2.46
2023-02-12T08:16:56.858Z,2.11
2023-02-12T08:19:26.729Z,1.91
2023-02-12T08:21:57.553Z,2.04
2023-02-12T08:24:26.165Z,2.24
2023-02-12T08:26:54.627Z,2.22
2023-02-12T08:29:26.779Z,2.07
2023-02-12T08:32:01.335Z,1.94
2023-02-12T08:34:33.892Z,1.73
2023-02-12T08:37:06.605Z,1.88
2023-02-12T08:39:35.561Z,1.83
2023-02-12T08:42:06.184Z,1.74
2023-02-12T08:44:35.875Z,1.78
2023-02-12T08:47:07.321Z,1.73
2023-02-12T08:49:36.812Z,1.68
2023-02-12T08:52:08.260Z,1.79
2023-02-12T08:54:41.042Z,2.12
2023-02-12T08:57:09.812Z,2.16
2023-02-12T08:59:38.589Z,2.26
2023-02-12T09:02:09.671Z,2.33
2023-02-12T09:04:41.629Z,2.50
2023-02-12T09:07:14.205Z,2.70
2023-02-12T09:09:42.982Z,2.55
2023-02-12T09:12:10.941Z,2.59
2023-02-12T09:14:40.189Z,2.71
2023-02-12T09:17:08.626Z,2.68
2023-02-12T09:19:37.249Z,2.87
2023-02-12T09:22:05.223Z,3.25
2023-02-12T09:24:34.822Z,3.33
2023-02-12T09:27:03.898Z,3.16
2023-02-12T09:29:37.758Z,2.99
2023-02-12T09:32:07.058Z,2.80
2023-02-12T09:34:36.885Z,2.56
2023-02-12T09:37:05.219Z,2.60
2023-02-12T09:39:33.194Z,2.82
2023-02-12T09:42:33.090Z,2.60
2023-02-12T09:45:07.598Z,2.61
2023-02-12T09:48:08.293Z,2.49
2023-02-12T09:50:55.330Z,2.41
2023-02-12T09:53:27.024Z,2.74
2023-02-12T09:55:55.670Z,2.81
2023-02-12T09:58:35.752Z,2.76
2023-02-12T10:01:16.393Z,2.90
2023-02-12T10:03:45.857Z,3.33
2023-02-12T10:06:23.002Z,2.96
2023-02-12T10:09:15.030Z,2.86
2023-02-12T10:11:56.972Z,2.74
2023-02-12T10:14:39.866Z,2.67
2023-02-12T10:17:16.369Z,2.74
2023-02-12T10:20:08.181Z,2.70
2023-02-12T10:22:59.361Z,3.21
2023-02-12T10:25:53.106Z,3.80
2023-02-12T10:28:27.850Z,3.87
2023-02-12T10:31:01.644Z,3.34
2023-02-12T10:33:40.070Z,2.48
2023-02-12T10:36:29.709Z,2.37
2023-02-12T10:39:19.396Z,2.30
2023-02-12T10:41:57.230Z,2.17
2023-02-12T10:44:25.400Z,2.31
2023-02-12T10:46:56.270Z,2.43
2023-02-12T10:49:25.436Z,2.56
2023-02-12T10:52:06.720Z,2.50
2023-02-12T10:54:52.226Z,2.45
2023-02-12T10:57:29.014Z,2.37
2023-02-12T11:00:18.377Z,2.53
2023-02-12T11:03:08.493Z,2.56
2023-02-12T11:05:39.007Z,2.56
2023-02-12T11:08:08.051Z,2.34
2023-02-12T11:10:41.176Z,2.41
2023-02-12T11:13:46.176Z,2.22
2023-02-12T11:16:15.390Z,2.29
2023-02-12T11:19:04.444Z,2.12
2023-02-12T11:21:34.235Z,1.91
2023-02-12T11:24:26.835Z,1.82
2023-02-12T11:27:17.129Z,1.96
2023-02-12T11:29:51.503Z,1.77
2023-02-12T11:32:21.363Z,1.65
2023-02-12T11:35:24.489Z,1.65
2023-02-12T11:38:00.050Z,1.64
2023-02-12T11:40:34.147Z,1.78
2023-02-12T11:43:06.142Z,1.62
2023-02-12T11:45:45.034Z,1.50
2023-02-12T11:48:27.098Z,1.77
2023-02-12T11:50:59.833Z,1.77
2023-02-12T11:53:33.494Z,1.82
2023-02-12T11:56:09.937Z,1.96
2023-02-12T11:58:40.894Z,1.81
2023-02-12T12:01:21.918Z,1.90
2023-02-12T12:04:16.260Z,2.06
2023-02-12T12:07:12.133Z,2.08
2023-02-12T12:09:55.623Z,2.03
2023-02-12T12:12:39.180Z,2.10
2023-02-12T12:15:39.399Z,2.12
2023-02-12T12:18:43.619Z,2.21
2023-02-12T12:21:37.542Z,2.16
2023-02-12T12:24:51.970Z,2.04
2023-02-12T12:27:55.172Z,2.01
2023-02-12T12:30:49.104Z,2.24
2023-02-12T12:33:27.736Z,2.20
2023-02-12T12:36:03.717Z,2.06
2023-02-12T12:38:56.152Z,1.87
2023-02-12T12:41:39.827Z,1.98
2023-02-12T12:44:37.182Z,1.90
2023-02-12T12:47:43.754Z,1.69
2023-02-12T12:50:30.187Z,1.66
2023-02-12T12:53:18.266Z,1.64
2023-02-12T12:56:22.199Z,1.45
2023-02-12T12:59:17.590Z,1.57
2023-02-12T13:02:32.323Z,1.53
2023-02-12T13:05:47.640Z,1.46
2023-02-12T13:08:53.494Z,1.24
2023-02-12T13:11:42.516Z,1.34
2023-02-12T13:14:38.313Z,1.41
2023-02-12T13:17:49.086Z,1.30
2023-02-12T13:20:37.462Z,1.11
2023-02-12T13:23:29.552Z,1.25
2023-02-12T13:26:07.602Z,1.37
2023-02-12T13:28:42.212Z,1.33
2023-02-12T13:31:33.654Z,1.24
2023-02-12T13:34:08.640Z,1.08
2023-02-12T13:36:38.604Z,0.87
2023-02-12T13:39:32.191Z,0.73
2023-02-12T13:42:05.862Z,0.71
2023-02-12T13:44:56.399Z,0.63
2023-02-12T13:47:28.231Z,0.59
2023-02-12T13:50:18.506Z,0.59
2023-02-12T13:53:03.509Z,0.54
2023-02-12T13:55:38.429Z,0.42
2023-02-12T13:58:35.250Z,0.55
2023-02-12T14:01:13.332Z,0.64
2023-02-12T14:03:41.664Z,0.56
2023-02-12T14:06:17.220Z,0.54
2023-02-12T14:09:00.625Z,0.28
2023-02-12T14:11:29.384Z,0.29
2023-02-12T14:14:07.281Z,0.35
2023-02-12T14:16:39.812Z,0.28
2023-02-12T14:19:45.867Z,0.14
2023-02-12T14:22:43.502Z,0.17
2023-02-12T14:25:14.566Z,0.14
2023-02-12T14:27:45.634Z,0.06
2023-02-12T14:30:13.792Z,0.11
2023-02-12T14:32:50.646Z,0.07
2023-02-12T14:35:42.743Z,0.06
2023-02-12T14:38:16.909Z,-0.03
2023-02-12T14:40:49.299Z,0.00
2023-02-12T14:43:56.687Z,-0.03
2023-02-12T14:46:27.509Z,0.04
2023-02-12T14:48:58.276Z,-0.01
2023-02-12T14:51:44.901Z,-0.01
2023-02-12T14:54:21.075Z,0.03
2023-02-12T14:56:51.494Z,-0.01
2023-02-12T14:59:22.588Z,-0.04
2023-02-12T15:01:52.234Z,-0.09
2023-02-12T15:04:31.350Z,-0.12
2023-02-12T15:07:30.358Z,-0.04
2023-02-12T15:10:21.039Z,-0.13
2023-02-12T15:12:54.813Z,-0.11
2023-02-12T15:15:34.479Z,-0.14
2023-02-12T15:18:13.202Z,-0.21
2023-02-12T15:20:51.200Z,-0.25
2023-02-12T15:23:43.513Z,-0.27
2023-02-12T15:26:21.025Z,-0.17
2023-02-12T15:28:50.766Z,-0.27
2023-02-12T15:31:21.778Z,-0.32
2023-02-12T15:33:51.545Z,-0.31
2023-02-12T15:36:24.902Z,-0.38
2023-02-12T15:39:04.994Z,-0.32
2023-02-12T15:41:34.676Z,-0.39
2023-02-12T15:44:29.937Z,-0.44
2023-02-12T15:47:02.933Z,-0.46
2023-02-12T15:49:36.269Z,-0.46
2023-02-12T15:52:17.457Z,-0.53
2023-02-12T15:54:46.758Z,-0.48
2023-02-12T15:57:22.589Z,-0.42
2023-02-12T16:00:06.912Z,-0.33
2023-02-12T16:02:38.326Z,-0.38
2023-02-12T16:05:07.771Z,-0.39
2023-02-12T16:07:39.913Z,-0.38
2023-02-12T16:10:15.362Z,-0.32
2023-02-12T16:12:43.619Z,-0.32
2023-02-12T16:15:31.436Z,-0.32
2023-02-12T16:18:04.456Z,-0.38
2023-02-12T16:20:32.637Z,-0.36
2023-02-12T16:23:06.620Z,-0.38
2023-02-12T16:25:35.866Z,-0.29
2023-02-12T16:28:15.485Z,-0.29
2023-02-12T16:30:48.690Z,-0.24
2023-02-12T16:33:45.721Z,-0.34
2023-02-12T16:36:19.979Z,-0.45
2023-02-12T16:38:53.649Z,-0.68
2023-02-12T16:41:27.393Z,-0.77
2023-02-12T16:44:01.575Z,-0.87
2023-02-12T16:46:32.581Z,-0.94
2023-02-12T16:49:03.485Z,-0.97
2023-02-12T16:51:33.838Z,-0.95
2023-02-12T16:54:05.931Z,-0.94
2023-02-12T16:56:39.097Z,-0.85
2023-02-12T16:59:08.298Z,-0.80
2023-02-12T17:01:37.612Z,-0.79
2023-02-12T17:04:08.137Z,-0.78
2023-02-12T17:06:38.010Z,-0.79
2023-02-12T17:09:10.898Z,-0.75
2023-02-12T17:11:39.007Z,-0.71
2023-02-12T17:14:12.115Z,-0.69
2023-02-12T17:16:40.287Z,-0.67
2023-02-12T17:19:13.720Z,-0.65
2023-02-12T17:21:44.848Z,-0.66
2023-02-12T17:24:18.914Z,-0.65
2023-02-12T17:26:47.168Z,-0.64
2023-02-12T17:29:15.300Z,-0.61
2023-02-12T17:31:43.511Z,-0.60
2023-02-12T17:34:12.310Z,-0.63
2023-02-12T17:36:41.477Z,-0.68
2023-02-12T17:39:13.349Z,-0.68
2023-02-12T17:41:42.880Z,-0.63
2023-02-12T17:44:13.787Z,-0.65
2023-02-12T17:46:43.706Z,-0.67
2023-02-12T17:49:13.556Z,-0.65
2023-02-12T17:51:43.399Z,-0.64
2023-02-12T17:54:12.865Z,-0.59
2023-02-12T17:56:41.671Z,-0.54
2023-02-12T17:59:11.269Z,-0.57
2023-02-12T18:01:41.594Z,-0.52
2023-02-12T18:04:20.628Z,-0.51
2023-02-12T18:06:49.632Z,-0.58
2023-02-12T18:09:21.697Z,-0.64
2023-02-12T18:11:50.699Z,-0.64
2023-02-12T18:14:22.029Z,-0.63
2023-02-12T18:16:50.733Z,-0.64
2023-02-12T18:19:19.096Z,-0.72
2023-02-12T18:21:48.118Z,-0.78
2023-02-12T18:24:17.180Z,-0.78
2023-02-12T18:26:45.395Z,-0.82
2023-02-12T18:29:18.650Z,-0.88
2023-02-12T18:31:50.811Z,-0.97
2023-02-12T18:34:20.379Z,-0.96
2023-02-12T18:36:52.000Z,-1.09
2023-02-12T18:39:22.240Z,-1.18
2023-02-12T18:41:53.731Z,-1.23
2023-02-12T18:44:26.012Z,-1.31
2023-02-12T18:46:54.340Z,-1.37
2023-02-12T18:49:22.499Z,-1.46
2023-02-12T18:51:55.020Z,-1.47
2023-02-12T18:54:23.577Z,-1.49
2023-02-12T18:56:53.571Z,-1.53
2023-02-12T18:59:27.187Z,-1.59
2023-02-12T19:01:56.431Z,-1.64
2023-02-12T19:04:28.139Z,-1.62
2023-02-12T19:06:57.486Z,-1.61
2023-02-12T19:09:28.476Z,-1.61
2023-02-12T19:12:00.404Z,-1.49
2023-02-12T19:14:32.911Z,-1.45
2023-02-12T19:17:02.510Z,-1.39
2023-02-12T19:19:31.261Z,-1.35
2023-02-12T19:21:59.809Z,-1.32
2023-02-12T19:24:44.368Z,-1.31
2023-02-12T19:27:14.431Z,-1.37
2023-02-12T19:29:45.708Z,-1.37
2023-02-12T19:32:17.508Z,-1.35
2023-02-12T19:34:46.456Z,-1.26
2023-02-12T19:37:15.376Z,-1.15
2023-02-12T19:39:44.178Z,-1.16
2023-02-12T19:42:15.212Z,-1.10
2023-02-12T19:44:43.697Z,-1.07
2023-02-12T19:47:12.852Z,-1.01
2023-02-12T19:49:41.838Z,-0.99
2023-02-12T19:52:10.710Z,-0.92
2023-02-12T19:54:40.885Z,-0.93
2023-02-12T19:57:11.427Z,-0.90
2023-02-12T19:59:41.713Z,-0.97
2023-02-12T20:02:11.680Z,-0.96
2023-02-12T20:04:41.802Z,-0.95
2023-02-12T20:07:10.029Z,-0.98
2023-02-12T20:09:41.135Z,-1.01
2023-02-12T20:12:09.572Z,-0.98
2023-02-12T20:14:41.357Z,-1.01
2023-02-12T20:17:12.245Z,-0.99
2023-02-12T20:19:41.396Z,-1.07
2023-02-12T20:22:09.789Z,-1.05
2023-02-12T20:24:38.709Z,-1.06
2023-02-12T20:27:07.120Z,-1.06
2023-02-12T20:29:35.425Z,-1.07
2023-02-12T20:32:03.726Z,-1.04
2023-02-12T20:34:39.752Z,-1.07
2023-02-12T20:37:18.749Z,-1.07
2023-02-12T20:39:47.097Z,-1.09
2023-02-12T20:42:15.737Z,-1.12
2023-02-12T20:44:47.215Z,-1.09
2023-02-12T20:47:15.443Z,-1.11
2023-02-12T20:49:43.941Z,-1.16
2023-02-12T20:52:15.234Z,-1.19
2023-02-12T20:54:44.564Z,-1.23
2023-02-12T20:57:14.180Z,-1.27
2023-02-12T20:59:44.979Z,-1.33
2023-02-12T21:02:13.914Z,-1.35
2023-02-12T21:04:44.632Z,-1.39
2023-02-12T21:07:13.229Z,-1.44
2023-02-12T21:09:42.102Z,-1.49
2023-02-12T21:12:12.466Z,-1.54
2023-02-12T21:14:40.640Z,-1.52
2023-02-12T21:17:13.779Z,-1.58
2023-02-12T21:19:42.491Z,-1.58
2023-02-12T21:22:11.062Z,-1.55
2023-02-12T21:24:39.627Z,-1.63
2023-02-12T21:27:08.359Z,-1.67
2023-02-12T21:29:37.975Z,-1.77
2023-02-12T21:32:06.861Z,-1.71
2023-02-12T21:34:35.197Z,-1.76
2023-02-12T21:37:03.646Z,-1.77
2023-02-12T21:39:32.490Z,-1.81
2023-02-12T21:42:03.316Z,-1.92
2023-02-12T21:44:35.871Z,-1.94
2023-02-12T21:47:04.852Z,-1.92
2023-02-12T21:49:34.758Z,-1.97
2023-02-12T21:52:06.899Z,-2.05
2023-02-12T21:54:38.825Z,-2.09
2023-02-12T21:57:07.129Z,-2.10
2023-02-12T21:59:35.472Z,-2.18
2023-02-12T22:02:03.693Z,-2.31
2023-02-12T22:04:33.317Z,-2.32
2023-02-12T22:07:04.061Z,-2.42
2023-02-12T22:09:36.119Z,-2.46
2023-02-12T22:12:08.248Z,-2.59
2023-02-12T22:14:41.420Z,-2.63
2023-02-12T22:17:10.506Z,-2.72
2023-02-12T22:19:39.452Z,-2.79
2023-02-12T22:22:08.397Z,-2.80
2023-02-12T22:24:38.262Z,-2.82
2023-02-12T22:27:07.629Z,-2.89
2023-02-12T22:29:41.428Z,-2.96
2023-02-12T22:32:10.132Z,-3.03
2023-02-12T22:34:38.693Z,-3.07
2023-02-12T22:37:08.921Z,-3.08
2023-02-12T22:39:37.303Z,-3.09
2023-02-12T22:42:05.979Z,-3.20
2023-02-12T22:44:36.604Z,-3.21
2023-02-12T22:47:08.492Z,-3.27
2023-02-12T22:49:37.671Z,-3.37
2023-02-12T22:52:06.664Z,-3.39
2023-02-12T22:54:37.291Z,-3.41
2023-02-12T22:57:05.760Z,-3.43
2023-02-12T22:59:34.058Z,-3.49
2023-02-12T23:02:05.136Z,-3.51
2023-02-12T23:04:33.547Z,-3.58
2023-02-12T23:07:01.908Z,-3.57
2023-02-12T23:09:30.724Z,-3.55
2023-02-12T23:11:59.207Z,-3.53
2023-02-12T23:14:34.270Z,-3.59
2023-02-12T23:17:06.188Z,-3.61
2023-02-12T23:19:40.885Z,-3.69
2023-02-12T23:22:09.302Z,-3.77
2023-02-12T23:24:37.377Z,-3.80
2023-02-12T23:27:10.922Z,-3.85
2023-02-12T23:29:39.308Z,-3.87
2023-02-12T23:32:07.611Z,-3.85
2023-02-12T23:34:35.772Z,-3.91
2023-02-12T23:37:04.822Z,-3.98
2023-02-12T23:39:33.972Z,-4.05
2023-02-12T23:42:06.129Z,-4.05
2023-02-12T23:44:34.860Z,-4.07
2023-02-12T23:47:03.887Z,-4.11
2023-02-12T23:49:35.697Z,-4.14
2023-02-12T23:52:04.181Z,-4.16
2023-02-12T23:54:32.769Z,-4.18
2023-02-12T23:57:00.882Z,-4.19
2023-02-12T23:59:29.050Z,-4.20
